Las Cruces International Airport
KLRU : now visible

Airfield :











YOU CAN JOIN US ON...

 
LOGIN :

Register | Disclaimer

   EN    FR    IT 

 









Legend :    VFR   Marginal VFR   IFR   Intensive IFR   Very Intensive IFR
Visi :
Ceiling :
>= 8 km
>= 3000ft
5 to 8 km
1000 to 3000 ft
1500m to 5 km
500 to 1000 ft
800 to 1500m
200 to 500 ft
< 800m
< 200 ft
Symbols :   Thunderstorms  Fog  Heavy snow  Heavy precipitations  Wind > 20 kt






- Airport Elevation : 4456 ft
- IATA code : LRU


KLRU - Las Cruces International

CURRENT METAR :
  • 081855Z AUTO 24009G14KT 10SM CLR 23/M02 A3014 RMK AO2 T02281025

EXPIRED METARs :
  • 081835Z AUTO 24009G17KT 10SM CLR 23/M01 A3015 RMK AO2 T02261006
  • 081815Z AUTO 25013G17KT 10SM CLR 22/00 A3016 RMK AO2 T02201001
  • 081755Z AUTO 24011G15KT 10SM CLR 22/01 A3016 RMK AO2 T02200005 10220 20100
  • 081735Z AUTO 25009G17KT 210V290 10SM CLR 22/00 A3016 RMK AO2 T02170002
  • 081715Z AUTO 26012G19KT 10SM CLR 21/01 A3016 RMK AO2 T02130011
  • 081655Z AUTO 25014G17KT 10SM CLR 21/01 A3017 RMK AO2 T02130013
  • 081635Z AUTO 27012G15KT 10SM CLR 21/01 A3017 RMK AO2 T02070014
  • 081615Z AUTO 25008G15KT 10SM CLR 20/02 A3017 RMK AO2 T02040018

TAF KLRU
Valid from the 08 at 18:00 until the 09 at 18:00 UTC


081739Z 0818/0918 23011G17KT P6SM SKC
FM082100 23015G23KT P6SM FEW250
FM090400 26008KT P6SM SCT250



MET'MAP, your aeronautical weather chart ! - Copyright ORBIFLY December 2007 - Disclaimer

ORBIFLY MET'MAP TEAM :

Programming & Development : Alexandra Zaïnal
Concept & original design : Baudouin d'Aumeries
Assistance for programming : Marc-Olivier Méhu
Technical & hardware support : Manuel Goepfert

Contact : metmap@orbifly.com




SOURCES & CREDITS :

   NOAA       Earth
Advisory